Terminal Aerodrome Forecast
Issued by NWS Wichita, KS

Home | Current Version | Previous Version | Text Only | Print | Product List | Glossary On
Versions: 1 2 3 4 5 6 7 8 9 10 11 12 13 14 15 16
000
FTUS43 KICT 270500
TAFICT
TAF
KICT 270520Z 2706/2806 13008KT P6SM BKN120 OVC250
     FM271200 16007KT P6SM SCT250
     FM271500 18012G17KT P6SM FEW060 FEW250
     FM280300 15008KT P6SM BKN250=

USA.gov is the U.S. government's official web portal to all federal, state and local government web resources and services.